createdAt,value
2022-08-03T00:00:24.336Z,23.00
2022-08-03T00:02:51.503Z,23.00
2022-08-03T00:05:18.389Z,22.90
2022-08-03T00:07:45.313Z,22.90
2022-08-03T00:10:13.550Z,22.80
2022-08-03T00:12:40.397Z,22.80
2022-08-03T00:15:09.514Z,22.80
2022-08-03T00:17:53.066Z,22.80
2022-08-03T00:20:22.058Z,22.80
2022-08-03T00:22:49.648Z,22.80
2022-08-03T00:25:16.644Z,22.80
2022-08-03T00:27:43.605Z,22.70
2022-08-03T00:30:10.863Z,22.70
2022-08-03T00:32:40.029Z,22.60
2022-08-03T00:35:18.043Z,22.50
2022-08-03T00:37:59.074Z,22.40
2022-08-03T00:40:26.121Z,22.40
2022-08-03T00:42:56.441Z,22.30
2022-08-03T00:45:25.304Z,22.30
2022-08-03T00:47:52.736Z,22.30
2022-08-03T00:50:22.837Z,22.30
2022-08-03T00:52:51.758Z,22.30
2022-08-03T00:55:19.032Z,22.30
2022-08-03T00:57:46.514Z,22.30
2022-08-03T01:00:16.733Z,22.20
2022-08-03T01:02:43.681Z,22.20
2022-08-03T01:05:10.940Z,22.10
2022-08-03T01:07:54.998Z,22.10
2022-08-03T01:11:00.693Z,22.00
2022-08-03T01:14:18.650Z,21.90
2022-08-03T01:16:49.261Z,21.90
2022-08-03T01:19:33.921Z,21.90
2022-08-03T01:22:19.331Z,21.90
2022-08-03T01:25:06.063Z,21.90
2022-08-03T01:27:45.852Z,21.90
2022-08-03T01:30:13.480Z,21.80
2022-08-03T01:33:00.980Z,21.80
2022-08-03T01:35:38.233Z,21.70
2022-08-03T01:38:11.360Z,21.60
2022-08-03T01:40:41.371Z,21.50
2022-08-03T01:43:11.627Z,21.50
2022-08-03T01:45:39.606Z,21.50
2022-08-03T01:48:07.553Z,21.40
2022-08-03T01:50:35.477Z,21.40
2022-08-03T01:53:03.475Z,21.40
2022-08-03T01:55:33.308Z,21.30
2022-08-03T01:58:05.620Z,21.30
2022-08-03T02:00:36.786Z,21.30
2022-08-03T02:03:06.762Z,21.30
2022-08-03T02:05:34.280Z,21.20
2022-08-03T02:08:03.592Z,21.20
2022-08-03T02:10:35.359Z,21.20
2022-08-03T02:13:04.535Z,21.10
2022-08-03T02:15:32.732Z,21.20
2022-08-03T02:18:01.843Z,21.20
2022-08-03T02:20:31.967Z,21.20
2022-08-03T02:22:59.200Z,21.20
2022-08-03T02:25:26.152Z,21.20
2022-08-03T02:27:56.590Z,21.20
2022-08-03T02:30:32.707Z,21.20
2022-08-03T02:33:01.434Z,21.20
2022-08-03T02:35:29.747Z,21.20
2022-08-03T02:38:01.233Z,21.20
2022-08-03T02:40:30.794Z,21.30
2022-08-03T02:43:02.544Z,21.40
2022-08-03T02:45:30.972Z,21.60
2022-08-03T02:48:02.816Z,21.70
2022-08-03T02:50:31.007Z,21.90
2022-08-03T02:53:00.052Z,22.00
2022-08-03T02:55:28.438Z,22.00
2022-08-03T02:57:57.081Z,22.10
2022-08-03T03:00:29.520Z,22.10
2022-08-03T03:03:00.552Z,22.10
2022-08-03T03:05:54.803Z,22.10
2022-08-03T03:08:20.936Z,22.10
2022-08-03T03:10:56.386Z,22.20
2022-08-03T03:13:24.222Z,22.30
2022-08-03T03:15:52.712Z,22.30
2022-08-03T03:18:22.718Z,22.40
2022-08-03T03:20:50.990Z,22.40
2022-08-03T03:23:18.251Z,22.50
2022-08-03T03:25:45.788Z,22.50
2022-08-03T03:28:12.871Z,22.60
2022-08-03T03:30:39.715Z,22.60
2022-08-03T03:33:07.416Z,22.60
2022-08-03T03:35:39.091Z,22.70
2022-08-03T03:38:07.295Z,22.70
2022-08-03T03:40:36.711Z,22.70
2022-08-03T03:43:07.212Z,22.60
2022-08-03T03:45:35.452Z,22.60
2022-08-03T03:48:05.267Z,22.60
2022-08-03T03:50:33.467Z,22.50
2022-08-03T03:53:01.207Z,22.60
2022-08-03T03:55:28.548Z,22.60
2022-08-03T03:57:55.553Z,22.60
2022-08-03T04:00:23.020Z,22.70
2022-08-03T04:02:49.885Z,22.70
2022-08-03T04:05:35.065Z,22.70
2022-08-03T04:08:25.714Z,22.70
2022-08-03T04:11:21.354Z,22.70
2022-08-03T04:14:05.854Z,22.70
2022-08-03T04:16:43.671Z,22.70
2022-08-03T04:19:35.830Z,22.80
2022-08-03T04:22:07.627Z,22.80
2022-08-03T04:24:40.286Z,22.80
2022-08-03T04:27:11.569Z,22.80
2022-08-03T04:29:48.131Z,22.90
2022-08-03T04:32:16.260Z,22.90
2022-08-03T04:34:44.057Z,22.90
2022-08-03T04:37:22.391Z,22.90
2022-08-03T04:39:49.900Z,22.90
2022-08-03T04:42:19.238Z,22.90
2022-08-03T04:44:47.818Z,22.90
2022-08-03T04:47:15.018Z,22.90
2022-08-03T04:49:42.123Z,22.90
2022-08-03T04:52:10.127Z,22.90
2022-08-03T04:54:50.155Z,23.00
2022-08-03T04:57:23.157Z,23.00
2022-08-03T05:00:01.717Z,23.00
2022-08-03T05:02:30.094Z,23.00
2022-08-03T05:04:57.238Z,23.00
2022-08-03T05:07:25.045Z,23.10
2022-08-03T05:10:01.365Z,23.10
2022-08-03T05:12:32.672Z,23.10
2022-08-03T05:15:00.471Z,23.20
2022-08-03T05:17:28.369Z,23.20
2022-08-03T05:19:55.984Z,23.30
2022-08-03T05:22:23.247Z,23.30
2022-08-03T05:24:50.522Z,23.30
2022-08-03T05:27:20.320Z,23.30
2022-08-03T05:29:48.651Z,23.40
2022-08-03T05:32:16.377Z,23.40
2022-08-03T05:34:43.932Z,23.40
2022-08-03T05:37:11.425Z,23.50
2022-08-03T05:39:38.435Z,23.60
2022-08-03T05:42:05.380Z,23.60
2022-08-03T05:44:32.248Z,23.70
2022-08-03T05:46:59.559Z,23.80
2022-08-03T05:49:26.501Z,23.80
2022-08-03T05:52:00.142Z,23.80
2022-08-03T05:54:55.531Z,23.90
2022-08-03T05:57:25.202Z,23.90
2022-08-03T05:59:53.812Z,23.90
2022-08-03T06:02:26.832Z,24.00
2022-08-03T06:04:54.181Z,24.00
2022-08-03T06:07:21.050Z,24.10
2022-08-03T06:10:35.775Z,24.20
2022-08-03T06:12:39.333Z,24.20
2022-08-03T06:15:07.836Z,24.20
2022-08-03T06:17:49.074Z,24.30
2022-08-03T06:20:20.411Z,24.30
2022-08-03T06:22:50.801Z,24.30
2022-08-03T06:25:19.391Z,24.40
2022-08-03T06:27:48.448Z,24.40
2022-08-03T06:30:21.100Z,24.50
2022-08-03T06:32:51.858Z,24.50
2022-08-03T06:35:20.056Z,24.60
2022-08-03T06:37:50.272Z,24.60
2022-08-03T06:40:24.273Z,24.70
2022-08-03T06:42:51.589Z,24.80
2022-08-03T06:45:18.668Z,24.90
2022-08-03T06:47:45.494Z,24.90
2022-08-03T06:50:16.583Z,25.00
2022-08-03T06:52:45.419Z,25.10
2022-08-03T06:55:12.467Z,25.20
2022-08-03T06:57:39.277Z,25.20
2022-08-03T07:00:11.827Z,25.30
2022-08-03T07:02:40.065Z,25.40
2022-08-03T07:05:08.390Z,25.50
2022-08-03T07:07:35.610Z,25.60
2022-08-03T07:10:02.615Z,25.70
2022-08-03T07:12:30.237Z,25.80
2022-08-03T07:15:01.394Z,25.90
2022-08-03T07:17:34.333Z,26.00
2022-08-03T07:20:04.091Z,26.20
2022-08-03T07:22:30.991Z,26.30
2022-08-03T07:24:58.395Z,26.40
2022-08-03T07:27:27.104Z,26.60
2022-08-03T07:29:54.772Z,26.70
2022-08-03T07:32:21.809Z,26.90
2022-08-03T07:34:48.669Z,27.10
2022-08-03T07:37:15.761Z,27.30
2022-08-03T07:39:42.660Z,27.50
2022-08-03T07:42:09.754Z,27.60
2022-08-03T07:44:36.616Z,27.80
2022-08-03T07:47:03.601Z,27.90
2022-08-03T07:49:30.804Z,28.10
2022-08-03T07:52:16.699Z,28.20
2022-08-03T07:54:43.998Z,28.30
2022-08-03T07:57:10.853Z,28.60
2022-08-03T07:59:57.190Z,28.70
2022-08-03T08:02:27.146Z,28.90
2022-08-03T08:04:54.034Z,29.10
2022-08-03T08:07:20.856Z,29.20
2022-08-03T08:09:47.720Z,29.30
2022-08-03T08:12:15.610Z,29.40
2022-08-03T08:14:45.827Z,29.40
2022-08-03T08:17:13.359Z,29.50
2022-08-03T08:19:43.834Z,29.60
2022-08-03T08:22:29.725Z,29.80
2022-08-03T08:24:58.557Z,29.90
2022-08-03T08:27:26.095Z,30.00
2022-08-03T08:29:55.410Z,30.00
2022-08-03T08:32:24.498Z,30.00
2022-08-03T08:34:51.379Z,30.10
2022-08-03T08:37:18.318Z,30.10
2022-08-03T08:39:45.179Z,30.10
2022-08-03T08:42:12.187Z,30.00
2022-08-03T08:44:39.321Z,30.10
2022-08-03T08:47:08.178Z,30.10
2022-08-03T08:49:37.845Z,30.10
2022-08-03T08:52:25.248Z,30.20
2022-08-03T08:55:00.193Z,30.30
2022-08-03T08:57:42.289Z,30.40
2022-08-03T09:00:14.822Z,30.50
2022-08-03T09:02:44.007Z,30.60
2022-08-03T09:05:15.809Z,30.70
2022-08-03T09:07:43.889Z,30.80
2022-08-03T09:10:13.713Z,30.80
2022-08-03T09:12:46.793Z,30.90
2022-08-03T09:15:24.685Z,31.00
2022-08-03T09:17:53.607Z,31.00
2022-08-03T09:20:22.130Z,31.10
2022-08-03T09:22:55.576Z,31.20
2022-08-03T09:25:34.441Z,31.40
2022-08-03T09:28:56.398Z,31.40
2022-08-03T09:31:04.996Z,31.60
2022-08-03T09:33:36.233Z,31.80
2022-08-03T09:36:03.246Z,32.00
2022-08-03T09:38:30.210Z,32.30
2022-08-03T09:41:00.316Z,32.50
2022-08-03T09:43:28.703Z,32.60
2022-08-03T09:46:05.682Z,32.60
2022-08-03T09:48:35.105Z,32.70
2022-08-03T09:51:14.419Z,32.70
2022-08-03T09:53:57.279Z,32.70
2022-08-03T09:56:39.356Z,32.60
2022-08-03T09:59:06.376Z,32.50
2022-08-03T10:01:35.341Z,32.60
2022-08-03T10:04:03.514Z,32.40
2022-08-03T10:06:31.664Z,32.40
2022-08-03T10:09:10.353Z,32.50
2022-08-03T10:11:41.589Z,32.60
2022-08-03T10:14:11.423Z,32.70
2022-08-03T10:16:40.094Z,32.90
2022-08-03T10:19:08.342Z,33.00
2022-08-03T10:21:40.950Z,33.00
2022-08-03T10:24:10.827Z,33.10
2022-08-03T10:26:49.780Z,33.10
2022-08-03T10:29:26.141Z,33.00
2022-08-03T10:31:58.719Z,33.00
2022-08-03T10:34:35.143Z,33.00
2022-08-03T10:37:07.459Z,33.20
2022-08-03T10:39:35.127Z,33.30
2022-08-03T10:42:03.769Z,33.40
2022-08-03T10:44:40.207Z,33.40
2022-08-03T10:47:10.796Z,33.60
2022-08-03T10:49:38.350Z,33.70
2022-08-03T10:52:12.814Z,33.90
2022-08-03T10:55:07.586Z,34.20
2022-08-03T10:57:43.644Z,34.30
2022-08-03T11:00:23.818Z,34.60
2022-08-03T11:03:12.215Z,34.60
2022-08-03T11:05:49.052Z,34.70
2022-08-03T11:08:19.522Z,34.50
2022-08-03T11:10:47.103Z,34.50
2022-08-03T11:13:21.740Z,34.50
2022-08-03T11:15:51.967Z,34.60
2022-08-03T11:18:18.969Z,34.60
2022-08-03T11:20:56.632Z,34.50
2022-08-03T11:24:03.420Z,34.50
2022-08-03T11:26:33.984Z,34.40
2022-08-03T11:29:31.803Z,34.50
2022-08-03T11:31:58.863Z,34.50
2022-08-03T11:34:26.433Z,34.40
2022-08-03T11:37:23.270Z,34.40
2022-08-03T11:39:53.051Z,34.40
2022-08-03T11:42:23.212Z,34.50
2022-08-03T11:44:54.399Z,34.40
2022-08-03T11:47:22.741Z,34.50
2022-08-03T11:49:51.132Z,34.70
2022-08-03T11:52:19.524Z,34.80
2022-08-03T11:54:56.661Z,35.00
2022-08-03T11:59:01.718Z,35.00
2022-08-03T12:00:32.439Z,35.10
2022-08-03T12:03:01.035Z,35.10
2022-08-03T12:05:39.943Z,35.20
2022-08-03T12:08:08.506Z,35.20
2022-08-03T12:10:35.897Z,35.10
2022-08-03T12:14:36.672Z,35.00
2022-08-03T12:15:57.574Z,34.90
2022-08-03T12:18:25.052Z,35.00
2022-08-03T12:20:53.280Z,35.00
2022-08-03T12:23:20.511Z,35.10
2022-08-03T12:25:48.119Z,35.30
2022-08-03T12:28:37.291Z,35.40
2022-08-03T12:31:07.530Z,35.60
2022-08-03T12:33:59.055Z,35.70
2022-08-03T12:36:27.872Z,35.90
2022-08-03T12:38:57.825Z,36.00
2022-08-03T12:41:34.783Z,36.20
2022-08-03T12:44:06.971Z,36.20
2022-08-03T12:46:47.430Z,36.20
2022-08-03T12:49:17.171Z,36.20
2022-08-03T12:51:44.054Z,36.20
2022-08-03T12:54:24.801Z,36.30
2022-08-03T12:57:03.533Z,36.40
2022-08-03T12:59:40.782Z,36.40
2022-08-03T13:02:18.256Z,36.40
2022-08-03T13:04:48.011Z,36.70
2022-08-03T13:07:16.263Z,36.70
2022-08-03T13:09:47.708Z,36.70
2022-08-03T13:12:22.386Z,36.80
2022-08-03T13:14:51.930Z,36.70
2022-08-03T13:17:19.408Z,36.50
2022-08-03T13:19:47.815Z,36.50
2022-08-03T13:22:21.901Z,36.20
2022-08-03T13:24:50.871Z,36.10
2022-08-03T13:28:01.305Z,36.00
2022-08-03T13:30:05.545Z,36.10
2022-08-03T13:32:33.527Z,36.30
2022-08-03T13:35:02.476Z,36.80
2022-08-03T13:37:32.170Z,36.90
2022-08-03T13:40:02.769Z,37.00
2022-08-03T13:42:31.811Z,36.80
2022-08-03T13:44:59.877Z,36.90
2022-08-03T13:47:27.528Z,37.10
2022-08-03T13:50:00.932Z,37.20
2022-08-03T13:52:33.826Z,37.20
2022-08-03T13:55:01.864Z,37.20
2022-08-03T13:58:04.186Z,37.20
2022-08-03T14:00:27.946Z,37.30
2022-08-03T14:03:16.109Z,37.30
2022-08-03T14:05:44.138Z,37.40
2022-08-03T14:08:11.900Z,37.30
2022-08-03T14:10:41.830Z,37.10
2022-08-03T14:13:09.117Z,37.00
2022-08-03T14:15:37.288Z,37.10
2022-08-03T14:18:15.431Z,37.20
2022-08-03T14:20:49.090Z,37.30
2022-08-03T14:23:18.559Z,37.30
2022-08-03T14:25:51.531Z,37.40
2022-08-03T14:28:22.896Z,37.30
2022-08-03T14:30:51.365Z,37.20
2022-08-03T14:33:18.400Z,37.20
2022-08-03T14:35:45.292Z,37.20
2022-08-03T14:38:12.232Z,37.30
2022-08-03T14:40:39.110Z,37.50
2022-08-03T14:43:06.152Z,37.50
2022-08-03T14:45:34.271Z,37.50
2022-08-03T14:50:34.340Z,37.50
2022-08-03T14:50:51.475Z,37.40
2022-08-03T14:53:19.768Z,37.50
2022-08-03T14:55:49.607Z,37.60
2022-08-03T14:58:25.979Z,37.70
2022-08-03T15:00:54.980Z,37.80
2022-08-03T15:03:26.182Z,37.80
2022-08-03T15:05:54.874Z,37.60
2022-08-03T15:08:23.472Z,37.60
2022-08-03T15:10:50.889Z,37.90
2022-08-03T15:13:19.520Z,37.90
2022-08-03T15:15:47.704Z,37.80
2022-08-03T15:18:14.624Z,37.60
2022-08-03T15:20:46.212Z,37.40
2022-08-03T15:23:14.770Z,37.40
2022-08-03T15:26:28.010Z,37.40
2022-08-03T15:28:29.875Z,37.60
2022-08-03T15:30:56.991Z,37.60
2022-08-03T15:33:23.890Z,37.50
2022-08-03T15:35:50.778Z,37.40
2022-08-03T15:38:17.741Z,37.50
2022-08-03T15:40:44.951Z,37.50
2022-08-03T15:43:11.950Z,37.30
2022-08-03T15:45:40.613Z,37.20
2022-08-03T15:48:11.905Z,37.30
2022-08-03T15:50:38.994Z,37.30
2022-08-03T15:53:06.026Z,37.10
2022-08-03T15:55:33.171Z,36.80
2022-08-03T15:59:09.104Z,36.50
2022-08-03T16:00:47.004Z,36.50
2022-08-03T16:03:13.912Z,36.50
2022-08-03T16:05:40.800Z,36.30
2022-08-03T16:08:13.231Z,36.20
2022-08-03T16:10:40.715Z,36.30
2022-08-03T16:13:07.948Z,36.50
2022-08-03T16:15:38.384Z,36.60
2022-08-03T16:18:08.842Z,36.50
2022-08-03T16:20:36.076Z,36.40
2022-08-03T16:23:09.188Z,36.40
2022-08-03T16:25:39.367Z,36.30
2022-08-03T16:28:13.007Z,36.40
2022-08-03T16:30:42.013Z,36.40
2022-08-03T16:33:09.132Z,36.20
2022-08-03T16:35:36.198Z,36.00
2022-08-03T16:38:09.253Z,35.90
2022-08-03T16:40:37.121Z,35.90
2022-08-03T16:43:18.354Z,35.70
2022-08-03T16:45:47.034Z,35.90
2022-08-03T16:48:15.308Z,35.90
2022-08-03T16:50:42.337Z,35.90
2022-08-03T16:53:15.677Z,35.70
2022-08-03T16:55:54.013Z,35.70
2022-08-03T16:58:41.842Z,35.80
2022-08-03T17:01:22.150Z,35.90
2022-08-03T17:04:02.672Z,35.90
2022-08-03T17:06:36.572Z,35.90
2022-08-03T17:09:15.491Z,35.90
2022-08-03T17:11:47.625Z,36.00
2022-08-03T17:14:17.000Z,35.90
2022-08-03T17:16:52.678Z,36.00
2022-08-03T17:19:24.495Z,35.90
2022-08-03T17:22:26.354Z,35.80
2022-08-03T17:24:54.451Z,35.80
2022-08-03T17:28:49.200Z,35.80
2022-08-03T17:30:15.865Z,35.80
2022-08-03T17:32:57.028Z,35.60
2022-08-03T17:35:34.290Z,35.40
2022-08-03T17:38:06.643Z,35.30
2022-08-03T17:40:37.923Z,35.10
2022-08-03T17:44:13.784Z,35.00
2022-08-03T17:45:54.725Z,34.90
2022-08-03T17:48:25.052Z,34.70
2022-08-03T17:51:00.042Z,34.60
2022-08-03T17:53:31.411Z,34.40
2022-08-03T17:56:45.366Z,34.30
2022-08-03T17:59:51.565Z,34.10
2022-08-03T18:02:47.696Z,34.10
2022-08-03T18:05:17.667Z,33.80
2022-08-03T18:07:59.311Z,33.60
2022-08-03T18:10:34.642Z,33.50
2022-08-03T18:13:10.551Z,33.30
2022-08-03T18:15:46.392Z,33.20
2022-08-03T18:18:32.381Z,33.00
2022-08-03T18:21:04.652Z,32.90
2022-08-03T18:23:37.359Z,32.80
2022-08-03T18:26:11.955Z,32.60
2022-08-03T18:28:40.649Z,32.50
2022-08-03T18:31:11.931Z,32.40
2022-08-03T18:34:19.337Z,32.30
2022-08-03T18:36:30.355Z,32.20
2022-08-03T18:39:02.533Z,32.00
2022-08-03T18:41:33.144Z,31.80
2022-08-03T18:44:08.789Z,31.70
2022-08-03T18:47:16.726Z,31.50
2022-08-03T18:49:58.329Z,31.30
2022-08-03T18:52:37.360Z,31.20
2022-08-03T18:55:19.679Z,31.10
2022-08-03T18:57:59.672Z,31.00
2022-08-03T19:00:34.285Z,30.80
2022-08-03T19:03:24.292Z,30.80
2022-08-03T19:06:13.422Z,30.60
2022-08-03T19:09:02.754Z,30.50
2022-08-03T19:12:12.294Z,30.40
2022-08-03T19:14:37.207Z,30.30
2022-08-03T19:17:10.363Z,30.20
2022-08-03T19:19:43.929Z,30.10
2022-08-03T19:22:16.074Z,29.90
2022-08-03T19:24:45.321Z,29.90
2022-08-03T19:27:13.198Z,29.80
2022-08-03T19:29:59.868Z,29.70
2022-08-03T19:32:31.245Z,29.60
2022-08-03T19:35:00.202Z,29.50
2022-08-03T19:37:38.164Z,29.50
2022-08-03T19:40:10.359Z,29.30
2022-08-03T19:42:43.307Z,29.30
2022-08-03T19:45:14.708Z,29.20
2022-08-03T19:47:47.494Z,29.10
2022-08-03T19:50:16.939Z,29.10
2022-08-03T19:52:47.789Z,29.00
2022-08-03T19:55:16.683Z,28.90
2022-08-03T19:57:49.335Z,28.90
2022-08-03T20:00:19.508Z,28.80
2022-08-03T20:02:47.302Z,28.70
2022-08-03T20:05:18.392Z,28.70
2022-08-03T20:07:48.294Z,28.60
2022-08-03T20:10:16.736Z,28.50
2022-08-03T20:12:45.624Z,28.40
2022-08-03T20:15:13.052Z,28.30
2022-08-03T20:17:55.475Z,28.20
2022-08-03T20:20:31.513Z,28.10
2022-08-03T20:23:00.613Z,28.00
2022-08-03T20:25:38.102Z,28.00
2022-08-03T20:28:15.485Z,27.90
2022-08-03T20:30:47.610Z,27.90
2022-08-03T20:33:18.697Z,27.80
2022-08-03T20:35:49.160Z,27.60
2022-08-03T20:38:17.673Z,27.50
2022-08-03T20:40:45.994Z,27.40
2022-08-03T20:43:12.898Z,27.30
2022-08-03T20:46:01.044Z,27.20
2022-08-03T20:48:28.989Z,27.20
2022-08-03T20:50:56.525Z,27.10
2022-08-03T20:53:57.365Z,27.10
2022-08-03T20:56:10.646Z,27.10
2022-08-03T20:58:42.508Z,27.00
2022-08-03T21:01:18.050Z,27.00
2022-08-03T21:03:55.963Z,27.00
2022-08-03T21:06:29.235Z,27.00
2022-08-03T21:09:04.971Z,27.10
2022-08-03T21:11:42.214Z,27.10
2022-08-03T21:14:15.765Z,27.10
2022-08-03T21:16:46.254Z,27.00
2022-08-03T21:19:14.499Z,27.00
2022-08-03T21:21:43.949Z,26.90
2022-08-03T21:24:13.916Z,26.80
2022-08-03T21:26:41.766Z,26.70
2022-08-03T21:29:13.387Z,26.70
2022-08-03T21:31:40.732Z,26.60
2022-08-03T21:34:07.772Z,26.50
2022-08-03T21:36:38.393Z,26.50
2022-08-03T21:39:08.647Z,26.50
2022-08-03T21:41:37.418Z,26.40
2022-08-03T21:44:05.463Z,26.40
2022-08-03T21:46:37.563Z,26.30
2022-08-03T21:50:05.805Z,26.30
2022-08-03T21:51:58.539Z,26.30
2022-08-03T21:54:40.901Z,26.20
2022-08-03T21:57:19.387Z,26.20
2022-08-03T21:59:55.726Z,26.10
2022-08-03T22:02:28.485Z,26.10
2022-08-03T22:04:58.343Z,26.00
2022-08-03T22:07:27.155Z,26.00
2022-08-03T22:09:55.896Z,25.90
2022-08-03T22:12:24.777Z,25.80
2022-08-03T22:15:00.164Z,25.80
2022-08-03T22:17:54.554Z,25.70
2022-08-03T22:20:19.271Z,25.60
2022-08-03T22:22:53.518Z,25.60
2022-08-03T22:25:28.931Z,25.50
2022-08-03T22:27:57.931Z,25.50
2022-08-03T22:30:25.034Z,25.50
2022-08-03T22:32:54.342Z,25.50
2022-08-03T22:35:23.823Z,25.50
2022-08-03T22:37:53.939Z,25.50
2022-08-03T22:40:21.184Z,25.50
2022-08-03T22:42:52.296Z,25.50
2022-08-03T22:46:06.039Z,25.50
2022-08-03T22:48:08.511Z,25.50
2022-08-03T22:50:35.453Z,25.50
2022-08-03T22:53:02.756Z,25.50
2022-08-03T22:55:29.804Z,25.50
2022-08-03T22:57:56.693Z,25.40
2022-08-03T23:00:24.122Z,25.40
2022-08-03T23:02:53.672Z,25.40
2022-08-03T23:06:01.276Z,25.30
2022-08-03T23:08:14.671Z,25.30
2022-08-03T23:10:46.942Z,25.30
2022-08-03T23:13:20.088Z,25.30
2022-08-03T23:15:54.538Z,25.30
2022-08-03T23:18:23.061Z,25.30
2022-08-03T23:20:54.416Z,25.20
2022-08-03T23:23:23.326Z,25.20
2022-08-03T23:25:51.926Z,25.20
2022-08-03T23:28:19.130Z,25.10
2022-08-03T23:30:46.854Z,25.00
2022-08-03T23:33:16.385Z,25.00
2022-08-03T23:36:28.699Z,25.10
2022-08-03T23:38:48.390Z,25.10
2022-08-03T23:41:17.538Z,25.10
2022-08-03T23:43:53.797Z,25.00
2022-08-03T23:46:25.868Z,25.00
2022-08-03T23:48:53.861Z,25.10
2022-08-03T23:51:33.098Z,25.10
2022-08-03T23:54:32.402Z,25.00
2022-08-03T23:57:26.785Z,24.90
